Time;durP1;ratioP1;P1;durP2;ratioP2;P2;SDS_P1;SDS_P2;PMS_P1;PMS_P2;Temp;Humidity;BMP_temperature;BMP_pressure;BME280_temperature;BME280_humidity;BME280_pressure;Samples;Min_cycle;Max_cycle;Signal;HPM_P1;HPM_P2
2022/08/28 00:00:14;;;;;;;6.40;1.70;;;;;;;18.03;84.50;100915.59;691479;28;1930;-47
2022/08/28 00:00:36;;;;;;;4.43;1.60;;;;;;;17.99;85.17;100913.09;693213;28;1310;-47
2022/08/28 00:00:56;;;;;;;3.97;1.67;;;;;;;17.92;84.91;100920.38;692682;28;4301;-49
2022/08/28 00:01:18;;;;;;;5.50;1.90;;;;;;;17.91;84.29;100920.38;692849;28;1547;-49
2022/08/28 00:01:38;;;;;;;6.32;1.73;;;;;;;17.89;84.64;100917.78;693557;28;1361;-49
2022/08/28 00:01:58;;;;;;;6.33;1.60;;;;;;;17.87;85.01;100917.84;693733;28;1051;-46
2022/08/28 00:02:19;;;;;;;6.43;1.60;;;;;;;17.86;85.58;100916.09;692832;28;1070;-49
2022/08/28 00:02:40;;;;;;;5.40;1.60;;;;;;;17.84;85.22;100919.72;692955;28;1030;-49
2022/08/28 00:03:00;;;;;;;4.53;1.50;;;;;;;17.83;85.50;100925.91;693133;28;1269;-49
2022/08/28 00:03:21;;;;;;;7.87;1.93;;;;;;;17.84;84.86;100919.72;693480;28;1130;-47
2022/08/28 00:03:42;;;;;;;5.90;1.75;;;;;;;17.96;85.39;100910.56;692854;28;4364;-44
2022/08/28 00:04:03;;;;;;;5.40;1.90;;;;;;;17.93;84.66;100919.47;693324;28;1167;-46
2022/08/28 00:04:23;;;;;;;5.82;1.73;;;;;;;17.93;84.51;100914.16;693881;28;957;-49
2022/08/28 00:04:44;;;;;;;5.15;1.80;;;;;;;17.89;84.31;100928.38;693622;28;1146;-51
2022/08/28 00:05:08;;;;;;;5.43;2.00;;;;;;;17.85;84.06;100914.38;690405;28;1171;-49
2022/08/28 00:05:30;;;;;;;5.07;1.70;;;;;;;17.85;83.94;100924.09;693484;28;1372;-48
2022/08/28 00:05:51;;;;;;;5.50;1.92;;;;;;;17.83;84.16;100918.84;693142;28;1178;-46
2022/08/28 00:06:11;;;;;;;5.67;1.83;;;;;;;17.88;84.26;100916.06;693268;28;991;-44
2022/08/28 00:06:32;;;;;;;5.50;1.60;;;;;;;17.90;84.47;100919.50;693670;28;1031;-48
2022/08/28 00:06:52;;;;;;;5.97;1.77;;;;;;;17.88;84.69;100918.69;693829;28;4401;-49
2022/08/28 00:07:13;;;;;;;4.67;1.50;;;;;;;17.85;84.78;100913.50;695371;28;971;-47
2022/08/28 00:07:34;;;;;;;6.10;1.63;;;;;;;17.85;85.21;100926.72;696052;28;1103;-51
2022/08/28 00:07:54;;;;;;;5.68;1.80;;;;;;;17.80;84.82;100929.50;696888;28;1094;-47
2022/08/28 00:08:15;;;;;;;4.18;1.58;;;;;;;17.77;84.94;100921.66;695392;28;1184;-47
2022/08/28 00:08:36;;;;;;;6.63;1.63;;;;;;;17.74;86.51;100929.69;692462;28;1387;-51
2022/08/28 00:08:56;;;;;;;6.43;1.70;;;;;;;17.72;85.61;100926.22;693751;28;1139;-46
2022/08/28 00:09:16;;;;;;;4.53;1.77;;;;;;;17.71;85.76;100924.50;692600;28;1065;-45
2022/08/28 00:09:37;;;;;;;5.23;1.80;;;;;;;17.70;85.36;100922.78;693429;28;948;-47
2022/08/28 00:09:57;;;;;;;5.60;1.80;;;;;;;17.70;84.81;100923.63;690155;28;4382;-44
2022/08/28 00:10:20;;;;;;;5.93;1.70;;;;;;;17.74;84.70;100923.56;690892;28;1452;-50
2022/08/28 00:10:40;;;;;;;6.65;1.98;;;;;;;17.78;84.98;100925.19;693695;28;1076;-50
2022/08/28 00:11:00;;;;;;;5.05;1.63;;;;;;;17.83;84.55;100931.19;690601;28;1136;-49
2022/08/28 00:11:22;;;;;;;4.13;1.57;;;;;;;17.83;84.42;100921.50;690580;28;1351;-47
2022/08/28 00:11:42;;;;;;;6.30;1.80;;;;;;;17.81;83.92;100927.75;691546;28;1277;-47
2022/08/28 00:12:04;;;;;;;5.37;1.77;;;;;;;17.79;84.49;100922.50;689643;28;1346;-46
2022/08/28 00:12:25;;;;;;;5.45;1.70;;;;;;;17.77;84.57;100931.38;690310;28;1074;-49
2022/08/28 00:12:47;;;;;;;5.78;1.65;;;;;;;17.75;84.91;100931.44;690743;28;4297;-46
2022/08/28 00:13:14;;;;;;;6.20;1.80;;;;;;;17.73;85.00;100927.09;693044;28;1049;-48
2022/08/28 00:13:36;;;;;;;6.03;1.88;;;;;;;17.73;84.94;100929.75;692452;28;1092;-49
2022/08/28 00:13:57;;;;;;;6.85;1.92;;;;;;;17.71;85.63;100929.81;692971;28;1027;-49
2022/08/28 00:14:19;;;;;;;4.97;1.70;;;;;;;17.72;85.77;100941.22;692680;28;1047;-49
2022/08/28 00:14:40;;;;;;;8.32;1.73;;;;;;;17.70;85.69;100939.50;693124;28;1118;-50
2022/08/28 00:15:00;;;;;;;7.80;1.70;;;;;;;17.68;85.98;100930.75;692989;28;1594;-48
2022/08/28 00:15:25;;;;;;;4.25;1.50;;;;;;;17.72;85.58;100931.50;693755;28;923;-50
2022/08/28 00:15:49;;;;;;;5.03;1.60;;;;;;;17.73;85.00;100933.25;691847;28;4523;-44
2022/08/28 00:16:10;;;;;;;5.53;1.55;;;;;;;17.76;84.83;100932.28;693916;28;1199;-48
2022/08/28 00:16:30;;;;;;;5.63;1.67;;;;;;;17.75;85.25;100933.19;693314;28;1215;-46
2022/08/28 00:16:52;;;;;;;6.13;1.60;;;;;;;17.74;85.00;100934.13;690359;28;1154;-48
2022/08/28 00:17:12;;;;;;;5.43;1.60;;;;;;;17.74;85.63;100935.00;691450;28;964;-46
2022/08/28 00:17:32;;;;;;;5.33;1.70;;;;;;;17.76;85.27;100934.94;690489;28;1175;-46
2022/08/28 00:17:53;;;;;;;5.10;1.58;;;;;;;17.76;85.62;100937.59;690935;28;1076;-46
2022/08/28 00:18:14;;;;;;;5.43;1.60;;;;;;;17.74;85.33;100931.50;692351;28;1132;-48
2022/08/28 00:18:34;;;;;;;5.80;1.60;;;;;;;17.80;84.09;100932.16;692972;28;1133;-49
2022/08/28 00:18:55;;;;;;;6.50;1.60;;;;;;;17.80;84.90;100936.56;692595;28;4299;-46
2022/08/28 00:19:17;;;;;;;5.68;1.80;;;;;;;17.84;84.90;100935.56;694222;28;1004;-49
2022/08/28 00:19:38;;;;;;;5.80;1.90;;;;;;;17.83;85.07;100928.53;692942;28;1416;-48
2022/08/28 00:20:00;;;;;;;4.60;1.70;;;;;;;17.82;84.99;100926.81;693590;28;1922;-49
2022/08/28 00:20:22;;;;;;;4.60;1.60;;;;;;;17.78;85.43;100925.19;692792;28;971;-51
2022/08/28 00:20:45;;;;;;;5.97;1.77;;;;;;;17.75;86.05;100934.09;692660;28;1123;-49
2022/08/28 00:21:05;;;;;;;5.60;1.77;;;;;;;17.72;85.83;100934.16;693493;28;1408;-43
2022/08/28 00:21:27;;;;;;;4.87;1.53;;;;;;;17.70;85.76;100939.50;693087;28;1210;-51
2022/08/28 00:21:48;;;;;;;4.82;1.70;;;;;;;17.69;85.76;100927.22;692793;28;4281;-48
2022/08/28 00:22:08;;;;;;;5.25;1.75;;;;;;;17.69;86.02;100937.78;691226;28;1095;-49
2022/08/28 00:22:29;;;;;;;5.70;1.73;;;;;;;17.72;86.41;100930.66;693805;28;1202;-49
2022/08/28 00:22:50;;;;;;;5.72;1.60;;;;;;;17.72;86.41;100944.72;693653;28;1197;-48
2022/08/28 00:23:12;;;;;;;6.22;1.73;;;;;;;17.71;86.32;100935.09;693207;28;1022;-50
2022/08/28 00:23:32;;;;;;;6.47;1.90;;;;;;;17.70;86.36;100933.34;692831;28;1176;-45
2022/08/28 00:23:53;;;;;;;5.20;1.93;;;;;;;17.70;86.58;100928.91;693088;28;1118;-49
2022/08/28 00:24:13;;;;;;;5.32;1.88;;;;;;;17.70;85.91;100930.69;693694;28;1180;-47
2022/08/28 00:24:35;;;;;;;5.82;1.73;;;;;;;17.70;85.74;100939.50;693690;28;1021;-48
2022/08/28 00:24:55;;;;;;;5.60;1.70;;;;;;;17.76;85.11;100927.00;692141;28;4325;-52
2022/08/28 00:25:22;;;;;;;6.18;1.70;;;;;;;17.74;84.53;100928.84;693147;28;1078;-49
2022/08/28 00:25:43;;;;;;;5.68;1.70;;;;;;;17.80;83.77;100926.84;693130;28;1473;-46
2022/08/28 00:26:04;;;;;;;5.27;1.67;;;;;;;17.80;84.04;100933.94;692890;28;3742;-46
2022/08/28 00:27:51;;;;;;;7.15;1.70;;;;;;;17.82;84.14;100927.69;690398;28;4579;-47
2022/08/28 00:28:13;;;;;;;5.82;2.08;;;;;;;17.80;84.63;100929.50;693056;28;1169;-48
2022/08/28 00:28:33;;;;;;;5.57;1.90;;;;;;;17.80;84.55;100931.28;693155;28;1320;-48
2022/08/28 00:28:53;;;;;;;5.77;1.73;;;;;;;17.77;85.22;100929.59;693210;28;1123;-49
2022/08/28 00:29:14;;;;;;;6.55;1.80;;;;;;;17.76;84.90;100929.66;693535;28;901;-48
2022/08/28 00:29:34;;;;;;;4.77;1.70;;;;;;;17.75;85.38;100927.91;689391;28;1155;-49
2022/08/28 00:29:55;;;;;;;5.07;2.00;;;;;;;17.73;85.29;100929.75;686154;28;1123;-46
2022/08/28 00:30:15;;;;;;;4.40;1.87;;;;;;;17.72;85.64;100928.00;685724;28;1454;-48
2022/08/28 00:30:42;;;;;;;5.53;2.00;;;;;;;17.70;85.59;100923.63;683574;28;1086;-47
2022/08/28 00:31:04;;;;;;;5.55;1.63;;;;;;;17.68;85.98;100930.75;684485;28;4766;-49
2022/08/28 00:31:24;;;;;;;5.68;1.80;;;;;;;17.67;87.44;100934.31;687286;28;967;-50
2022/08/28 00:31:44;;;;;;;4.63;1.80;;;;;;;17.65;87.17;100938.78;692034;28;1226;-46
2022/08/28 00:32:05;;;;;;;5.33;1.80;;;;;;;17.64;87.01;100939.69;693348;28;1187;-46
2022/08/28 00:32:26;;;;;;;4.68;1.70;;;;;;;17.63;86.41;100939.75;693846;28;1110;-46
2022/08/28 00:32:46;;;;;;;7.03;1.80;;;;;;;17.62;86.60;100938.84;692755;28;1111;-46
2022/08/28 00:33:17;;;;;;;5.45;1.60;;;;;;;17.61;87.25;100939.78;694066;28;1321;-49
2022/08/28 00:33:37;;;;;;;7.20;1.87;;;;;;;17.58;87.38;100939.84;692570;28;1354;-50
2022/08/28 00:33:57;;;;;;;6.13;1.80;;;;;;;17.58;87.18;100933.72;693398;28;4672;-49
2022/08/28 00:34:18;;;;;;;6.00;1.95;;;;;;;17.57;87.33;100950.47;689285;28;1175;-48
2022/08/28 00:34:38;;;;;;;4.90;1.80;;;;;;;17.56;86.96;100946.97;690340;28;1115;-46
2022/08/28 00:35:02;;;;;;;5.63;1.70;;;;;;;17.56;86.61;100941.69;691721;28;1091;-48
2022/08/28 00:35:23;;;;;;;5.95;1.80;;;;;;;17.55;88.00;100942.59;692477;28;1034;-48
2022/08/28 00:35:43;;;;;;;5.20;1.65;;;;;;;17.53;88.05;100945.28;693043;28;1106;-49
2022/08/28 00:36:04;;;;;;;5.00;1.70;;;;;;;17.53;87.81;100936.50;692519;28;1009;-49
2022/08/28 00:36:24;;;;;;;4.50;1.60;;;;;;;17.54;87.57;100943.50;691891;28;932;-44
2022/08/28 00:36:45;;;;;;;4.72;1.70;;;;;;;17.54;87.75;100943.50;693727;28;4540;-54
2022/08/28 00:37:06;;;;;;;4.93;1.90;;;;;;;17.52;87.35;100940.06;692579;28;988;-46
2022/08/28 00:37:27;;;;;;;6.10;1.88;;;;;;;17.54;86.48;100940.84;693074;28;1171;-52
2022/08/28 00:37:47;;;;;;;6.35;1.85;;;;;;;17.57;86.13;100951.38;692324;28;1155;-50
2022/08/28 00:38:09;;;;;;;6.80;1.77;;;;;;;17.58;86.29;100949.56;692838;28;1159;-48
2022/08/28 00:38:30;;;;;;;5.80;1.63;;;;;;;17.58;86.71;100947.78;692182;28;1346;-46
2022/08/28 00:38:50;;;;;;;6.60;1.93;;;;;;;17.57;87.75;100943.44;692663;28;1562;-48
2022/08/28 00:39:10;;;;;;;8.47;2.00;;;;;;;17.53;87.24;100945.28;692679;28;1585;-49
2022/08/28 00:39:31;;;;;;;5.20;1.70;;;;;;;17.53;86.64;100947.06;692914;28;1391;-47
2022/08/28 00:39:52;;;;;;;6.95;1.88;;;;;;;17.52;87.17;100948.84;692869;28;4520;-48
2022/08/28 00:40:15;;;;;;;5.28;1.70;;;;;;;17.51;86.68;100948.88;692150;28;1918;-51
2022/08/28 00:40:36;;;;;;;5.30;1.60;;;;;;;17.51;86.80;100944.47;690739;28;1072;-43
2022/08/28 00:41:01;;;;;;;5.72;1.70;;;;;;;17.52;86.68;100950.63;692867;28;1249;-52
2022/08/28 00:41:22;;;;;;;6.50;1.80;;;;;;;17.51;86.65;100943.59;693078;28;1038;-47
2022/08/28 00:41:42;;;;;;;7.47;1.80;;;;;;;17.52;86.52;100947.97;692245;28;1130;-47
2022/08/28 00:42:04;;;;;;;9.57;1.90;;;;;;;17.51;87.61;100940.94;692544;28;1090;-49
2022/08/28 00:42:24;;;;;;;8.30;1.88;;;;;;;17.56;85.73;100946.97;692992;28;1408;-47
2022/08/28 00:42:45;;;;;;;5.38;1.70;;;;;;;17.57;86.18;100943.44;693733;28;4507;-48
2022/08/28 00:43:07;;;;;;;6.38;1.85;;;;;;;17.55;86.05;100942.59;694173;28;1246;-49
2022/08/28 00:43:34;;;;;;;6.07;1.85;;;;;;;17.54;86.75;100946.13;692805;28;1358;-51
2022/08/28 00:44:11;;;;;;;7.32;1.80;;;;;;;17.52;86.21;100942.69;691642;28;1021;-49
2022/08/28 00:44:31;;;;;;;5.65;1.67;;;;;;;17.51;86.53;100938.31;692002;28;1142;-44
2022/08/28 00:44:51;;;;;;;6.67;2.03;;;;;;;17.50;86.35;100940.09;689969;28;5150;-46
2022/08/28 00:45:14;;;;;;;6.07;1.80;;;;;;;17.54;86.26;100940.84;690272;28;989;-48
2022/08/28 00:45:35;;;;;;;4.28;1.50;;;;;;;17.55;86.04;100937.31;689528;28;1383;-46
2022/08/28 00:45:56;;;;;;;5.10;1.70;;;;;;;17.55;85.80;100942.59;688500;28;4264;-47
2022/08/28 00:46:22;;;;;;;5.80;1.77;;;;;;;17.55;86.21;100941.75;690460;28;1036;-45
2022/08/28 00:46:45;;;;;;;5.78;1.77;;;;;;;17.52;86.61;100940.06;692891;28;1017;-49
2022/08/28 00:47:05;;;;;;;5.07;1.70;;;;;;;17.50;86.88;100940.09;696530;28;1181;-48
2022/08/28 00:47:27;;;;;;;5.83;1.70;;;;;;;17.50;87.75;100936.56;692935;28;1189;-49
2022/08/28 00:47:48;;;;;;;6.28;1.92;;;;;;;17.48;87.91;100941.06;693329;28;1408;-43
2022/08/28 00:48:08;;;;;;;6.15;1.80;;;;;;;17.49;88.00;100935.72;686368;28;1506;-47
2022/08/28 00:48:29;;;;;;;6.07;1.85;;;;;;;17.47;88.27;100937.56;688025;28;1176;-46
2022/08/28 00:48:49;;;;;;;4.87;1.80;;;;;;;17.48;87.49;100938.41;684127;28;4414;-48
2022/08/28 00:49:12;;;;;;;5.57;1.60;;;;;;;17.50;86.44;100931.28;685851;28;1049;-50
2022/08/28 00:49:37;;;;;;;5.35;1.77;;;;;;;17.48;85.87;100933.13;688040;28;1179;-47
2022/08/28 00:49:57;;;;;;;6.18;1.70;;;;;;;17.45;85.51;100931.44;689727;28;1108;-47
2022/08/28 00:50:21;;;;;;;7.30;1.77;;;;;;;17.45;85.57;100934.06;691528;28;1092;-50
2022/08/28 00:52:17;;;;;;;5.60;1.63;;;;;;;17.45;87.03;100933.22;679987;28;6305;-46
2022/08/28 00:52:39;;;;;;;5.80;1.70;;;;;;;17.44;86.82;100942.06;682598;28;1230;-49
2022/08/28 00:53:00;;;;;;;4.70;1.70;;;;;;;17.44;86.97;100940.25;692978;28;1064;-51
2022/08/28 00:53:21;;;;;;;5.28;1.65;;;;;;;17.48;86.94;100938.41;693323;28;1206;-47
2022/08/28 00:53:42;;;;;;;4.38;1.60;;;;;;;17.48;86.47;100935.75;689964;28;1146;-46
2022/08/28 00:54:04;;;;;;;3.72;1.58;;;;;;;17.47;86.68;100932.25;690755;28;1207;-47
2022/08/28 00:54:26;;;;;;;5.57;1.65;;;;;;;17.47;86.68;100941.94;692774;28;1238;-48
2022/08/28 00:54:52;;;;;;;4.88;1.63;;;;;;;17.47;87.10;100936.66;693051;28;4559;-49
2022/08/28 00:55:17;;;;;;;4.75;1.63;;;;;;;17.46;87.31;100935.81;691734;28;1339;-50
2022/08/28 00:55:38;;;;;;;5.43;1.70;;;;;;;17.46;87.02;100934.94;693601;28;1447;-49
2022/08/28 00:56:01;;;;;;;5.85;1.70;;;;;;;17.45;87.78;100933.22;693685;28;1059;-48
2022/08/28 00:56:22;;;;;;;6.38;1.83;;;;;;;17.43;88.05;100935.03;693031;28;1802;-49
2022/08/28 00:56:43;;;;;;;7.30;1.83;;;;;;;17.43;87.50;100929.75;693898;28;1082;-46
2022/08/28 00:57:08;;;;;;;7.30;1.90;;;;;;;17.44;87.21;100939.41;692764;28;1197;-49
2022/08/28 00:57:43;;;;;;;6.75;1.80;;;;;;;17.49;87.08;100938.34;693398;28;1283;-50
2022/08/28 00:58:05;;;;;;;6.13;1.77;;;;;;;17.52;86.20;100935.63;692541;28;4916;-46
2022/08/28 00:58:25;;;;;;;5.70;1.73;;;;;;;17.56;85.55;100931.13;693157;28;1204;-45
2022/08/28 00:58:50;;;;;;;5.40;1.75;;;;;;;17.64;85.03;100939.69;693543;28;1777;-48
2022/08/28 00:59:14;;;;;;;5.95;1.80;;;;;;;17.61;84.91;100934.50;692361;28;1387;-47
2022/08/28 00:59:38;;;;;;;5.28;1.65;;;;;;;17.58;85.27;100936.34;693756;28;1529;-48
2022/08/28 00:59:59;;;;;;;4.55;1.50;;;;;;;17.65;85.75;100938.78;692598;28;1420;-46
2022/08/28 01:00:22;;;;;;;5.40;1.60;;;;;;;17.67;85.71;100938.72;693934;28;1110;-48
2022/08/28 01:00:43;;;;;;;7.72;1.80;;;;;;;17.65;85.69;100940.53;693104;28;4714;-49
2022/08/28 01:01:03;;;;;;;6.32;1.77;;;;;;;17.60;85.55;100942.44;694613;28;1099;-46
2022/08/28 01:01:24;;;;;;;6.10;1.70;;;;;;;17.59;85.76;100931.03;693366;28;1160;-49
2022/08/28 01:01:47;;;;;;;7.00;1.80;;;;;;;17.60;85.44;100938.03;693924;28;1143;-49
2022/08/28 01:02:07;;;;;;;6.60;1.70;;;;;;;17.64;85.71;100941.44;693056;28;1229;-43
2022/08/28 01:02:28;;;;;;;5.28;1.60;;;;;;;17.69;85.52;100942.19;692722;28;1225;-47
2022/08/28 01:02:48;;;;;;;5.73;1.63;;;;;;;17.73;85.45;100937.69;693727;28;1376;-49
2022/08/28 01:03:08;;;;;;;5.70;1.50;;;;;;;17.74;84.93;100940.28;693359;28;1555;-47
2022/08/28 01:03:29;;;;;;;5.37;1.63;;;;;;;17.70;85.60;100939.50;692854;28;1367;-48
2022/08/28 01:03:49;;;;;;;4.93;1.77;;;;;;;17.66;85.21;100937.84;692224;28;4458;-50
2022/08/28 01:04:18;;;;;;;4.95;1.80;;;;;;;17.64;84.74;100938.81;692153;28;1221;-49
2022/08/28 01:04:39;;;;;;;6.63;1.67;;;;;;;17.58;85.59;100950.44;692906;28;1457;-49
2022/08/28 01:04:59;;;;;;;6.23;1.73;;;;;;;17.64;85.60;100944.09;693939;28;1447;-47
2022/08/28 01:05:20;;;;;;;4.10;1.60;;;;;;;17.62;85.19;100946.78;693413;28;1058;-46
2022/08/28 01:05:43;;;;;;;5.25;1.67;;;;;;;17.58;85.46;100947.78;692899;28;1181;-50
2022/08/28 01:06:04;;;;;;;5.25;1.80;;;;;;;17.57;85.53;100948.72;692562;28;1075;-48
2022/08/28 01:06:24;;;;;;;5.68;1.77;;;;;;;17.53;85.79;100944.44;692903;28;1051;-46
2022/08/28 01:06:47;;;;;;;8.53;1.90;;;;;;;17.50;85.76;100947.13;692621;28;4374;-46
2022/08/28 01:07:13;;;;;;;7.03;1.70;;;;;;;17.47;86.19;100955.16;692358;28;1568;-44
2022/08/28 01:07:35;;;;;;;5.28;1.73;;;;;;;17.48;86.13;100951.63;692598;28;1256;-49
2022/08/28 01:07:58;;;;;;;6.45;2.08;;;;;;;17.45;86.45;100949.06;693411;28;1256;-47
2022/08/28 01:08:18;;;;;;;6.75;2.00;;;;;;;17.46;85.66;100950.78;693123;28;1002;-49
2022/08/28 01:08:42;;;;;;;6.40;1.83;;;;;;;17.41;85.53;100952.72;693448;28;1237;-47
2022/08/28 01:09:03;;;;;;;5.85;1.80;;;;;;;17.43;85.30;100951.75;692792;28;1468;-48
2022/08/28 01:09:26;;;;;;;4.68;1.80;;;;;;;17.40;85.71;100948.34;692947;28;1079;-47
2022/08/28 01:09:51;;;;;;;6.50;1.73;;;;;;;17.40;85.71;100956.25;692250;28;4415;-49
2022/08/28 01:10:17;;;;;;;6.53;1.80;;;;;;;17.44;86.08;100953.47;692890;28;1181;-43
2022/08/28 01:10:41;;;;;;;5.78;1.80;;;;;;;17.43;85.22;100954.41;694041;28;1066;-49
2022/08/28 01:11:05;;;;;;;4.60;1.80;;;;;;;17.41;86.00;100958.00;693565;28;1114;-44
2022/08/28 01:11:27;;;;;;;5.20;1.70;;;;;;;17.38;86.07;100948.38;693242;28;1380;-49
2022/08/28 01:11:51;;;;;;;6.32;1.85;;;;;;;17.41;86.18;100952.72;692975;28;1329;-49
2022/08/28 01:12:32;;;;;;;4.88;1.70;;;;;;;17.41;86.81;100952.72;692624;28;891;-46
2022/08/28 01:12:55;;;;;;;4.45;1.70;;;;;;;17.40;86.19;100958.91;693163;28;4439;-44
2022/08/28 01:13:16;;;;;;;4.82;1.70;;;;;;;17.35;86.77;100956.41;693301;28;1484;-46
2022/08/28 01:13:40;;;;;;;4.25;1.65;;;;;;;17.34;86.62;100958.16;693663;28;1215;-53
2022/08/28 01:14:04;;;;;;;6.95;1.98;;;;;;;17.33;86.29;100953.81;692406;28;1146;-48
2022/08/28 01:14:25;;;;;;;6.35;1.90;;;;;;;17.32;86.33;100953.81;693051;28;1070;-43
2022/08/28 01:14:49;;;;;;;6.10;1.77;;;;;;;17.32;86.15;100962.63;693343;28;1146;-52
2022/08/28 01:15:13;;;;;;;5.63;1.90;;;;;;;17.31;86.42;100955.59;693435;28;1290;-48
2022/08/28 01:15:37;;;;;;;5.55;1.90;;;;;;;17.30;86.48;100961.78;692992;28;1055;-45
2022/08/28 01:15:59;;;;;;;5.90;1.70;;;;;;;17.29;86.43;100960.09;692273;28;4587;-50
2022/08/28 01:16:21;;;;;;;5.85;1.80;;;;;;;17.29;86.59;100959.19;692755;28;982;-46
2022/08/28 01:16:43;;;;;;;7.90;2.10;;;;;;;17.27;86.90;100966.31;690554;28;1335;-47
2022/08/28 01:17:05;;;;;;;8.13;1.85;;;;;;;17.26;86.73;100964.56;690979;28;1080;-49
2022/08/28 01:17:30;;;;;;;5.15;1.80;;;;;;;17.25;87.42;100962.84;690248;28;1140;-49
2022/08/28 01:17:55;;;;;;;6.78;1.92;;;;;;;17.24;87.35;100967.25;691182;28;1410;-47
2022/08/28 01:18:17;;;;;;;5.82;1.88;;;;;;;17.26;87.21;100968.06;693230;28;1096;-45
2022/08/28 01:18:40;;;;;;;6.15;1.88;;;;;;;17.25;87.27;100962.84;693743;28;1069;-50
2022/08/28 01:19:04;;;;;;;5.22;1.98;;;;;;;17.24;87.60;100964.63;692502;28;5204;-46
2022/08/28 01:19:32;;;;;;;5.60;1.70;;;;;;;17.24;88.05;100974.31;689862;28;1135;-48
2022/08/28 01:19:57;;;;;;;5.60;2.08;;;;;;;17.25;87.55;100965.47;690537;28;1144;-48
2022/08/28 01:20:23;;;;;;;8.00;2.25;;;;;;;17.25;87.67;100968.13;690201;28;1914;-50
2022/08/28 01:20:56;;;;;;;6.22;1.90;;;;;;;17.29;87.62;100962.72;692582;28;1253;-44
2022/08/28 01:21:26;;;;;;;4.95;1.90;;;;;;;17.29;87.52;100962.72;692891;28;1210;-46
2022/08/28 01:21:57;;;;;;;4.60;1.77;;;;;;;17.30;86.58;100964.44;692388;28;4426;-48
2022/08/28 01:22:29;;;;;;;5.78;1.90;;;;;;;17.34;86.91;100966.09;692527;28;3862;-45
2022/08/28 01:22:58;;;;;;;5.55;1.70;;;;;;;17.35;87.38;100964.31;692915;28;1024;-46
2022/08/28 01:23:27;;;;;;;4.95;1.75;;;;;;;17.33;87.16;100961.72;688839;28;1134;-46
2022/08/28 01:23:53;;;;;;;5.78;1.70;;;;;;;17.30;86.79;100966.22;690841;28;1298;-46
2022/08/28 01:24:16;;;;;;;6.05;2.00;;;;;;;17.30;87.58;100969.72;689528;28;1296;-47
2022/08/28 01:24:38;;;;;;;6.43;2.08;;;;;;;17.29;87.43;100962.72;689953;28;1068;-49
2022/08/28 01:25:02;;;;;;;5.53;1.85;;;;;;;17.26;88.01;100962.78;690179;28;4299;-43
2022/08/28 01:25:23;;;;;;;5.40;1.98;;;;;;;17.24;87.70;100961.97;693437;28;1144;-48
2022/08/28 01:25:43;;;;;;;6.13;1.98;;;;;;;17.23;87.82;100962.88;693642;28;1044;-48
2022/08/28 01:26:04;;;;;;;6.30;1.87;;;;;;;17.26;87.92;100968.06;693077;28;953;-49
2022/08/28 01:26:26;;;;;;;4.25;1.77;;;;;;;17.28;87.07;100966.28;692996;28;1140;-43
2022/08/28 01:26:47;;;;;;;4.88;1.88;;;;;;;17.26;86.72;100965.44;692994;28;1394;-46
2022/08/28 01:27:07;;;;;;;5.90;1.95;;;;;;;17.26;86.85;100961.94;693638;28;1245;-47
2022/08/28 01:27:28;;;;;;;5.70;1.93;;;;;;;17.24;87.18;100966.38;693219;28;1150;-48
2022/08/28 01:27:50;;;;;;;6.18;1.80;;;;;;;17.23;87.16;100972.59;693395;28;4573;-46
2022/08/28 01:28:13;;;;;;;6.13;1.85;;;;;;;17.21;87.75;100961.19;692523;28;1351;-46
2022/08/28 01:28:33;;;;;;;5.68;1.80;;;;;;;17.22;88.00;100970.84;692271;28;1259;-51
2022/08/28 01:28:57;;;;;;;5.50;1.70;;;;;;;17.20;87.77;100965.63;693189;28;1203;-44
2022/08/28 01:29:17;;;;;;;5.63;1.95;;;;;;;17.18;88.18;100960.38;693635;28;1174;-45
2022/08/28 01:29:38;;;;;;;5.90;1.80;;;;;;;17.17;87.72;100957.78;690258;28;1092;-46
2022/08/28 01:29:58;;;;;;;6.28;1.90;;;;;;;17.18;87.53;100968.31;691114;28;1077;-51
2022/08/28 01:30:21;;;;;;;6.78;2.10;;;;;;;17.19;88.03;100964.72;692000;28;1267;-48
2022/08/28 01:30:43;;;;;;;6.60;1.90;;;;;;;17.17;87.98;100963.91;691624;28;4385;-47
2022/08/28 01:31:04;;;;;;;6.03;1.65;;;;;;;17.17;88.41;100960.41;692826;28;1048;-48
2022/08/28 01:31:27;;;;;;;6.80;1.90;;;;;;;17.16;88.09;100962.19;693180;28;1164;-46
2022/08/28 01:31:47;;;;;;;5.13;2.00;;;;;;;17.17;87.72;100961.28;694515;28;1404;-49
2022/08/28 01:32:08;;;;;;;6.22;2.10;;;;;;;17.17;87.74;100963.91;692452;28;2053;-45
2022/08/28 01:32:34;;;;;;;5.93;2.20;;;;;;;17.17;87.60;100963.06;693421;28;983;-45
2022/08/28 01:32:55;;;;;;;6.53;1.88;;;;;;;17.17;87.90;100960.41;693559;28;1012;-49
2022/08/28 01:33:16;;;;;;;5.20;1.70;;;;;;;17.16;87.79;100966.59;692799;28;1174;-48
2022/08/28 01:33:37;;;;;;;5.40;1.80;;;;;;;17.16;87.93;100959.53;693545;28;1043;-48
2022/08/28 01:33:58;;;;;;;6.35;1.83;;;;;;;17.17;87.90;100963.06;692707;28;4491;-49
2022/08/28 01:34:18;;;;;;;5.73;1.70;;;;;;;17.17;87.79;100968.34;693067;28;1137;-43
2022/08/28 01:34:39;;;;;;;5.80;1.70;;;;;;;17.17;87.92;100961.28;692264;28;1070;-47
2022/08/28 01:35:00;;;;;;;5.35;2.03;;;;;;;17.15;88.06;100965.72;692845;28;1137;-49
2022/08/28 01:35:24;;;;;;;4.35;1.50;;;;;;;17.14;89.19;100966.66;694233;28;1044;-51
2022/08/28 01:35:46;;;;;;;5.50;1.73;;;;;;;17.13;88.94;100964.91;691984;28;1285;-48
2022/08/28 01:36:07;;;;;;;5.97;1.70;;;;;;;17.13;88.63;100966.69;693802;28;1160;-44
2022/08/28 01:36:28;;;;;;;5.37;1.80;;;;;;;17.14;88.45;100966.66;693450;28;1273;-51
2022/08/28 01:36:49;;;;;;;5.22;1.70;;;;;;;17.15;88.10;100967.50;692670;28;4461;-47
2022/08/28 01:37:09;;;;;;;5.13;1.70;;;;;;;17.15;88.19;100964.88;691193;28;954;-48
2022/08/28 01:37:30;;;;;;;5.50;1.77;;;;;;;17.14;88.19;100971.03;693147;28;1317;-49
2022/08/28 01:37:52;;;;;;;5.63;1.90;;;;;;;17.14;87.83;100966.66;692610;28;1066;-51
2022/08/28 01:38:14;;;;;;;4.85;1.90;;;;;;;17.12;87.46;100965.81;692009;28;1133;-48
2022/08/28 01:38:36;;;;;;;6.25;1.80;;;;;;;17.11;87.13;100966.75;692796;28;1130;-46
2022/08/28 01:39:24;;;;;;;6.78;2.00;;;;;;;17.10;87.54;100970.28;693729;28;1091;-50
2022/08/28 01:39:44;;;;;;;5.63;1.77;;;;;;;17.10;89.75;100969.41;690722;28;4430;-46
2022/08/28 01:40:08;;;;;;;5.10;1.73;;;;;;;17.09;89.47;100962.41;692206;28;1989;-48
2022/08/28 01:40:34;;;;;;;5.15;1.80;;;;;;;17.09;89.30;100968.53;692274;28;1154;-44
2022/08/28 01:40:56;;;;;;;5.20;1.70;;;;;;;17.09;88.34;100967.69;692279;28;1076;-47
2022/08/28 01:41:18;;;;;;;6.25;1.90;;;;;;;17.10;88.11;100964.13;692503;28;1046;-50
2022/08/28 01:41:44;;;;;;;5.18;1.90;;;;;;;17.09;88.11;100965.91;693813;28;1266;-49
2022/08/28 01:42:05;;;;;;;5.57;2.10;;;;;;;17.07;89.05;100970.38;690658;28;1199;-47
2022/08/28 01:42:26;;;;;;;5.78;2.10;;;;;;;17.08;88.49;100971.22;689459;28;1451;-49
2022/08/28 01:42:46;;;;;;;6.57;2.03;;;;;;;17.08;88.68;100968.59;691455;28;4339;-46
2022/08/28 01:43:07;;;;;;;8.17;1.87;;;;;;;17.07;88.08;100974.78;690656;28;1206;-46
2022/08/28 01:43:30;;;;;;;7.93;2.00;;;;;;;17.07;88.10;100972.13;689016;28;1545;-49
2022/08/28 01:43:52;;;;;;;7.25;1.90;;;;;;;17.04;88.02;100966.94;690598;28;1583;-51
2022/08/28 01:44:17;;;;;;;6.47;2.00;;;;;;;17.06;88.32;100971.28;691042;28;1415;-47
2022/08/28 01:44:37;;;;;;;4.88;1.83;;;;;;;17.05;88.49;100966.88;690532;28;1080;-47
2022/08/28 01:44:58;;;;;;;6.13;1.80;;;;;;;17.05;88.78;100966.03;689859;28;5149;-50
2022/08/28 01:45:19;;;;;;;5.93;1.87;;;;;;;17.04;88.50;100969.56;691669;28;1249;-44
2022/08/28 01:45:43;;;;;;;5.53;1.90;;;;;;;17.04;88.99;100975.72;694044;28;1174;-45
2022/08/28 01:46:04;;;;;;;7.60;1.80;;;;;;;17.05;88.84;100969.53;693132;28;4797;-47
2022/08/28 01:46:25;;;;;;;7.88;1.77;;;;;;;17.05;88.69;100971.31;693064;28;1141;-46
2022/08/28 01:46:45;;;;;;;5.22;1.80;;;;;;;17.04;89.37;100980.16;693859;28;1211;-51
2022/08/28 01:47:05;;;;;;;5.10;1.90;;;;;;;17.05;89.96;100976.59;691839;28;1234;-47
2022/08/28 01:47:26;;;;;;;4.77;1.73;;;;;;;17.04;89.56;100969.56;692638;28;1509;-46
2022/08/28 01:47:47;;;;;;;6.10;1.80;;;;;;;17.02;89.21;100972.25;692709;28;1238;-45
2022/08/28 01:48:07;;;;;;;5.93;1.70;;;;;;;17.01;89.11;100971.38;691790;28;1400;-48
2022/08/28 01:48:34;;;;;;;5.63;1.90;;;;;;;17.00;88.64;100972.31;691280;28;1333;-48
2022/08/28 01:48:55;;;;;;;6.65;1.98;;;;;;;16.97;88.29;100969.72;692195;28;4522;-49